Terminal Aerodrome Forecast
Issued by NWS Knoxville/Tri Cities, TN

Home | Current Version | Previous Version | Text Only | Print | Product List | Glossary On
Versions: 1 2 3 4 5 6 7 8 9 10 11 12 13 14 15 16 17 18 19 20 21 22 23 24 25 26 27 28 29 30 31
000
FTUS44 KMRX 301123
TAFTRI
TAF
KTRI 301123Z 3012/3112 30012G20KT P6SM OVC035
      TEMPO 3012/3015 6SM -SN OVC025
     FM301500 30015G25KT P6SM BKN035
     FM301800 29014G22KT P6SM SCT035 BKN070
     FM310000 32004KT P6SM FEW070 SCT250=

USA.gov is the U.S. government's official web portal to all federal, state and local government web resources and services.